Time;durP1;ratioP1;P1;durP2;ratioP2;P2;SDS_P1;SDS_P2;PMS_P1;PMS_P2;Temp;Humidity;BMP_temperature;BMP_pressure;BME280_temperature;BME280_humidity;BME280_pressure;Samples;Min_cycle;Max_cycle;Signal;HPM_P1;HPM_P2
2024/01/11 00:00:36;;;;;;;2.78;1.23;;;;;;;-4.45;90.35;97660.25;5063462;28;20097;-53
2024/01/11 00:03:02;;;;;;;3.40;1.60;;;;;;;-4.39;90.66;97654.31;5057461;28;20036;-53
2024/01/11 00:05:28;;;;;;;4.10;1.48;;;;;;;-4.39;89.99;97645.00;5075151;28;20040;-50
2024/01/11 00:07:54;;;;;;;2.85;1.70;;;;;;;-4.38;89.84;97628.09;5073260;28;20043;-51
2024/01/11 00:10:21;;;;;;;2.08;1.00;;;;;;;-4.35;89.53;97634.00;5052729;28;20428;-51
2024/01/11 00:12:47;;;;;;;2.00;1.10;;;;;;;-4.35;89.63;97621.31;5050661;28;20555;-50
2024/01/11 00:15:13;;;;;;;1.73;1.10;;;;;;;-4.33;89.64;97616.22;5081532;28;20044;-50
2024/01/11 00:17:39;;;;;;;4.28;1.80;;;;;;;-4.33;89.98;97606.91;5056179;28;20090;-51
2024/01/11 00:20:06;;;;;;;1.75;1.17;;;;;;;-4.35;90.47;97601.03;5073070;28;20036;-50
2024/01/11 00:22:32;;;;;;;1.52;0.90;;;;;;;-4.34;91.29;97595.09;5070282;28;20046;-51
2024/01/11 00:24:58;;;;;;;1.60;1.13;;;;;;;-4.32;91.57;97574.78;5043696;28;20039;-51
2024/01/11 00:27:24;;;;;;;3.50;1.38;;;;;;;-4.26;92.20;97567.13;5050587;28;20085;-51
2024/01/11 00:29:50;;;;;;;2.58;1.48;;;;;;;-4.28;92.66;97572.22;5076721;28;20044;-52
2024/01/11 00:32:16;;;;;;;2.33;0.98;;;;;;;-4.23;92.58;97568.78;5049412;28;20169;-53
2024/01/11 00:34:43;;;;;;;2.10;0.90;;;;;;;-4.49;92.52;97511.56;5060574;28;20687;-55
2024/01/11 00:37:09;;;;;;;1.92;1.00;;;;;;;-4.44;93.67;97494.59;5070545;28;20059;-51
2024/01/11 00:39:34;;;;;;;5.18;1.80;;;;;;;-4.15;94.04;97534.06;5070483;28;20431;-53
2024/01/11 00:42:01;;;;;;;3.72;1.92;;;;;;;-4.15;94.24;97522.22;5069126;28;20032;-54
2024/01/11 00:44:27;;;;;;;3.60;1.40;;;;;;;-4.09;94.49;97519.59;5066631;28;20649;-49
2024/01/11 00:46:54;;;;;;;3.83;1.55;;;;;;;-4.05;94.84;97510.25;5063950;28;20040;-50
2024/01/11 00:49:21;;;;;;;11.90;1.42;;;;;;;-4.02;95.57;97503.44;5065190;28;20040;-49
2024/01/11 00:51:46;;;;;;;2.47;1.17;;;;;;;-4.00;95.89;97488.22;5070993;28;20193;-50
2024/01/11 00:54:12;;;;;;;2.03;1.30;;;;;;;-3.96;95.81;97497.44;5072105;28;20139;-53
2024/01/11 00:56:38;;;;;;;2.17;0.90;;;;;;;-3.90;96.02;97489.78;5072260;28;20072;-51
2024/01/11 00:59:04;;;;;;;1.38;0.93;;;;;;;-4.11;96.88;97430.00;5068024;28;20512;-52
2024/01/11 01:01:30;;;;;;;5.43;1.65;;;;;;;-3.79;97.73;97469.34;5074139;28;20408;-50
2024/01/11 01:03:56;;;;;;;3.03;1.42;;;;;;;-4.02;97.85;97424.78;5073298;28;20401;-50
2024/01/11 01:06:22;;;;;;;3.10;1.35;;;;;;;-3.71;97.71;97454.81;5069204;28;20136;-52
2024/01/11 01:08:48;;;;;;;2.83;1.50;;;;;;;-3.66;98.11;97453.91;5071395;28;20057;-51
2024/01/11 01:11:14;;;;;;;1.98;1.08;;;;;;;-3.61;98.04;97443.72;5071332;28;20040;-51
2024/01/11 01:13:40;;;;;;;3.83;1.60;;;;;;;-3.81;98.43;97388.13;5070406;28;20606;-53
2024/01/11 01:16:06;;;;;;;2.92;1.27;;;;;;;-3.48;98.57;97417.25;5094375;28;20127;-49
2024/01/11 01:18:32;;;;;;;1.48;0.93;;;;;;;-3.66;98.36;97377.75;5060966;28;20409;-53
2024/01/11 01:20:58;;;;;;;3.80;1.58;;;;;;;-3.59;98.60;97379.34;5067525;28;20055;-53
2024/01/11 01:23:24;;;;;;;0.60;0.38;;;;;;;-3.53;98.45;97363.16;5072859;28;20072;-51
2024/01/11 01:25:50;;;;;;;3.00;1.33;;;;;;;-3.46;98.90;97350.38;5073367;28;20040;-52
2024/01/11 01:28:16;;;;;;;0.93;0.50;;;;;;;-3.22;99.27;97371.13;5036353;28;20055;-52
2024/01/11 01:30:42;;;;;;;2.22;1.10;;;;;;;-3.23;99.26;97370.28;5069537;28;20044;-51
2024/01/11 01:33:08;;;;;;;2.58;0.73;;;;;;;-3.17;99.34;97382.03;5069098;28;20583;-51
2024/01/11 01:35:34;;;;;;;1.85;0.73;;;;;;;-3.34;99.66;97323.91;5069590;28;20189;-50
2024/01/11 01:38:00;;;;;;;1.77;0.90;;;;;;;-3.05;99.69;97358.97;5070346;28;20036;-52
2024/01/11 01:40:26;;;;;;;3.22;1.30;;;;;;;-2.94;99.56;97356.22;5068349;28;20161;-51
2024/01/11 01:42:58;;;;;;;2.95;0.98;;;;;;;-2.91;99.54;97354.47;5036093;28;20033;-49
2024/01/11 01:45:24;;;;;;;3.10;0.93;;;;;;;-2.87;99.51;97334.91;5064595;28;20047;-54
2024/01/11 01:47:50;;;;;;;11.68;0.90;;;;;;;-3.03;99.17;97299.63;5053402;28;20044;-53
2024/01/11 01:50:18;;;;;;;1.30;0.47;;;;;;;-2.76;99.35;97323.66;5070622;28;20079;-55
2024/01/11 01:52:44;;;;;;;1.35;0.63;;;;;;;-2.70;99.75;97317.63;5092045;28;20189;-53
2024/01/11 01:55:12;;;;;;;1.02;0.70;;;;;;;-2.69;99.76;97309.97;5065411;28;20040;-51
2024/01/11 01:57:40;;;;;;;1.40;1.05;;;;;;;-2.67;99.59;97294.69;5073116;28;20052;-51
2024/01/11 02:00:08;;;;;;;1.90;1.00;;;;;;;-2.63;99.44;97283.59;5060878;28;20134;-51
2024/01/11 02:02:43;;;;;;;4.25;1.30;;;;;;;-2.49;99.63;97294.31;5064679;28;20098;-54
2024/01/11 02:05:10;;;;;;;1.88;1.00;;;;;;;-2.67;99.54;97237.03;5066885;28;20350;-53
2024/01/11 02:07:36;;;;;;;0.82;0.55;;;;;;;-2.77;99.21;97201.66;5068442;28;20044;-51
2024/01/11 02:10:03;;;;;;;1.02;0.68;;;;;;;-2.36;98.75;97267.75;5066255;28;20556;-51
2024/01/11 02:12:31;;;;;;;1.65;0.77;;;;;;;-2.29;98.39;97260.78;5052502;28;20052;-53
2024/01/11 02:14:57;;;;;;;1.30;0.70;;;;;;;-2.48;98.16;97224.75;5069516;28;20429;-49
2024/01/11 02:17:23;;;;;;;0.98;0.50;;;;;;;-2.35;97.95;97226.16;5054342;28;20089;-52
2024/01/11 02:19:49;;;;;;;1.45;1.23;;;;;;;-2.16;97.96;97242.69;5071786;28;20571;-49
2024/01/11 02:22:22;;;;;;;1.50;0.95;;;;;;;-2.06;98.53;97230.56;5063907;28;20040;-53
2024/01/11 02:24:48;;;;;;;1.02;0.65;;;;;;;-1.96;98.04;97226.09;5061617;28;20052;-53
2024/01/11 02:27:14;;;;;;;2.33;0.70;;;;;;;-1.85;98.42;97221.59;5054337;28;20037;-50
2024/01/11 02:29:40;;;;;;;0.88;0.40;;;;;;;-1.83;98.04;97224.91;5068658;28;20060;-50
2024/01/11 02:32:08;;;;;;;1.00;0.55;;;;;;;-1.83;97.81;97217.28;5050599;28;20090;-52
2024/01/11 02:34:34;;;;;;;1.00;0.70;;;;;;;-1.81;97.85;97196.00;5064674;28;20057;-52
2024/01/11 02:37:00;;;;;;;1.50;0.90;;;;;;;-1.77;97.52;97179.75;5077509;28;20178;-52
2024/01/11 02:39:26;;;;;;;1.05;0.85;;;;;;;-2.15;97.49;97117.09;5076385;28;20131;-49
2024/01/11 02:41:57;;;;;;;1.23;0.60;;;;;;;-1.75;97.31;97182.28;5069730;28;20044;-48
2024/01/11 02:44:23;;;;;;;1.27;0.82;;;;;;;-1.87;97.56;97146.94;5062440;28;20032;-48
2024/01/11 02:46:49;;;;;;;0.90;0.60;;;;;;;-1.86;97.69;97129.09;5055409;28;20049;-50
2024/01/11 02:49:15;;;;;;;1.20;0.70;;;;;;;-1.78;97.45;97124.63;5066927;28;20185;-49
2024/01/11 02:51:41;;;;;;;1.33;0.70;;;;;;;-1.50;97.56;97170.56;5073149;28;20127;-48
2024/01/11 02:54:07;;;;;;;1.65;1.02;;;;;;;-1.51;97.93;97163.78;5073872;28;20055;-50
2024/01/11 02:56:33;;;;;;;0.98;0.65;;;;;;;-1.49;98.38;97154.41;5045063;28;20508;-52
2024/01/11 02:58:59;;;;;;;0.90;0.70;;;;;;;-1.46;98.74;97136.47;5068676;28;20036;-52
2024/01/11 03:01:25;;;;;;;0.88;0.63;;;;;;;-1.37;99.18;97137.97;5072979;28;20060;-51
2024/01/11 03:03:50;;;;;;;1.10;0.63;;;;;;;-1.32;99.35;97141.22;5087869;28;20040;-49
2024/01/11 03:06:21;;;;;;;1.13;0.70;;;;;;;-1.27;99.92;97125.78;5082648;28;20066;-55
2024/01/11 03:08:48;;;;;;;1.20;0.50;;;;;;;-1.24;100.00;97120.59;5075816;28;20081;-51
2024/01/11 03:11:14;;;;;;;2.00;0.80;;;;;;;-1.18;100.00;97120.41;5068735;28;20044;-52
2024/01/11 03:13:40;;;;;;;0.85;0.50;;;;;;;-1.13;100.00;97123.66;5078344;28;20052;-54
2024/01/11 03:16:06;;;;;;;1.30;0.73;;;;;;;-1.08;100.00;97124.38;5071611;28;20043;-50
2024/01/11 03:18:32;;;;;;;0.63;0.50;;;;;;;-1.05;100.00;97109.00;5072689;28;20044;-52
2024/01/11 03:20:58;;;;;;;2.22;1.10;;;;;;;-0.97;100.00;97096.84;5075105;28;20511;-54
2024/01/11 03:23:24;;;;;;;1.25;0.43;;;;;;;-1.10;100.00;97075.97;5070180;28;20040;-50
2024/01/11 03:25:50;;;;;;;1.52;0.80;;;;;;;-0.82;100.00;97109.13;5064780;28;20098;-52
2024/01/11 03:28:16;;;;;;;0.88;0.70;;;;;;;-0.70;100.00;97090.91;5073051;28;20727;-53
2024/01/11 03:30:43;;;;;;;1.17;0.50;;;;;;;-0.61;100.00;97087.22;5068363;28;20051;-53
2024/01/11 03:33:09;;;;;;;0.60;0.60;;;;;;;-0.62;100.00;97076.19;5076757;28;20036;-53
2024/01/11 03:35:38;;;;;;;1.65;1.13;;;;;;;-0.52;100.00;97075.00;5073396;28;20135;-50
2024/01/11 03:38:05;;;;;;;1.00;0.45;;;;;;;-0.42;100.00;97067.91;5055951;28;20408;-51
2024/01/11 03:40:31;;;;;;;1.35;0.63;;;;;;;-0.32;100.00;97068.44;5062382;28;20040;-49
2024/01/11 03:42:57;;;;;;;0.77;0.50;;;;;;;-0.27;100.00;97061.47;5059644;28;20039;-51
2024/01/11 03:45:23;;;;;;;0.70;0.50;;;;;;;-0.26;100.00;97053.72;5079383;28;20479;-51
2024/01/11 03:47:49;;;;;;;1.08;0.57;;;;;;;-0.39;100.00;97015.91;5072878;28;20055;-53
2024/01/11 03:50:15;;;;;;;3.72;0.90;;;;;;;-0.19;100.00;97046.69;5052068;28;20112;-51
2024/01/11 03:52:41;;;;;;;0.30;0.30;;;;;;;-0.05;100.00;97044.50;5066280;28;20131;-51
2024/01/11 03:55:07;;;;;;;2.65;0.80;;;;;;;0.02;100.00;97043.41;5072789;28;20036;-52
2024/01/11 03:57:33;;;;;;;1.40;0.60;;;;;;;0.04;100.00;97041.66;5068675;28;20542;-49
2024/01/11 03:59:59;;;;;;;0.77;0.50;;;;;;;0.16;100.00;97035.28;5071707;28;20036;-51
2024/01/11 04:02:25;;;;;;;1.08;0.60;;;;;;;0.24;100.00;97041.78;5070158;28;20571;-52
2024/01/11 04:04:51;;;;;;;1.10;0.50;;;;;;;0.24;100.00;97036.66;5053856;28;20094;-51
2024/01/11 04:07:17;;;;;;;1.48;0.63;;;;;;;0.32;100.00;97029.53;5069714;28;20058;-50
2024/01/11 04:09:43;;;;;;;2.08;0.50;;;;;;;0.16;100.00;96995.22;5055138;28;20422;-48
2024/01/11 04:12:09;;;;;;;1.50;0.60;;;;;;;0.46;100.00;97043.56;5066362;28;20032;-52
2024/01/11 04:14:42;;;;;;;1.73;0.52;;;;;;;0.50;100.00;97027.22;5072514;28;20118;-49
2024/01/11 04:17:08;;;;;;;1.42;0.55;;;;;;;0.60;100.00;97031.94;5077866;28;20458;-51
2024/01/11 04:19:34;;;;;;;0.98;0.60;;;;;;;0.66;100.00;97018.94;5066712;28;20128;-51
2024/01/11 04:22:00;;;;;;;0.43;0.32;;;;;;;0.69;100.00;97017.97;5075288;28;20073;-50
2024/01/11 04:24:26;;;;;;;0.85;0.30;;;;;;;0.71;100.00;97014.47;5066048;28;20057;-49
2024/01/11 04:26:52;;;;;;;0.98;0.50;;;;;;;0.48;100.00;96980.44;5083269;28;20663;-53
2024/01/11 04:29:18;;;;;;;3.45;1.73;;;;;;;0.73;100.00;97017.78;5064768;28;20519;-51
2024/01/11 04:31:44;;;;;;;0.85;0.43;;;;;;;0.79;100.00;97011.59;5053873;28;20032;-50
2024/01/11 04:34:10;;;;;;;1.17;0.68;;;;;;;0.77;100.00;97014.25;5077286;28;20094;-55
2024/01/11 04:36:39;;;;;;;1.20;0.70;;;;;;;0.83;100.00;97005.50;5071110;28;20047;-51
2024/01/11 04:39:07;;;;;;;1.48;0.30;;;;;;;0.90;100.00;96996.69;5071405;28;20045;-49
2024/01/11 04:41:36;;;;;;;0.93;0.43;;;;;;;0.67;100.00;96960.97;5071390;28;20515;-51
2024/01/11 04:44:03;;;;;;;0.50;0.30;;;;;;;0.93;100.00;96996.59;5078902;28;20052;-55
2024/01/11 04:46:29;;;;;;;0.50;0.40;;;;;;;0.91;100.00;96989.84;5054129;28;20135;-52
2024/01/11 04:48:55;;;;;;;1.63;1.10;;;;;;;0.93;100.00;96994.03;5070468;28;20043;-49
2024/01/11 04:51:21;;;;;;;1.17;0.60;;;;;;;0.69;100.00;96954.88;5071508;28;20040;-49
2024/01/11 04:53:47;;;;;;;1.17;0.77;;;;;;;0.99;100.00;96983.56;5054704;28;20797;-51
2024/01/11 04:56:16;;;;;;;0.30;0.28;;;;;;;1.03;100.00;96985.09;5061705;28;20516;-48
2024/01/11 04:58:44;;;;;;;0.98;0.50;;;;;;;1.01;100.00;96976.63;5068069;28;20040;-56
2024/01/11 05:01:14;;;;;;;1.48;0.73;;;;;;;1.00;100.00;96974.97;5070558;28;20062;-48
2024/01/11 05:03:41;;;;;;;0.85;0.43;;;;;;;1.04;100.00;96968.03;5071123;28;20423;-48
2024/01/11 05:06:07;;;;;;;0.68;0.50;;;;;;;1.04;100.00;96975.69;5070593;28;20047;-50
2024/01/11 05:08:33;;;;;;;0.80;0.60;;;;;;;1.10;100.00;96970.34;5069327;28;20039;-49
2024/01/11 05:10:59;;;;;;;0.73;0.65;;;;;;;1.04;100.00;96947.56;5069916;28;20037;-49
2024/01/11 05:13:25;;;;;;;4.53;0.70;;;;;;;1.13;100.00;96963.38;5052445;28;20040;-52
2024/01/11 05:15:51;;;;;;;0.45;0.43;;;;;;;0.99;100.00;96937.53;5082113;28;20047;-49
2024/01/11 05:18:17;;;;;;;2.05;0.57;;;;;;;1.16;100.00;96953.00;5078089;28;20115;-49
2024/01/11 05:20:42;;;;;;;1.10;0.47;;;;;;;1.21;100.00;96945.13;5069590;28;20058;-51
2024/01/11 05:23:08;;;;;;;1.30;0.82;;;;;;;1.20;100.00;96946.84;5070054;28;20763;-49
2024/01/11 05:25:34;;;;;;;1.10;0.63;;;;;;;1.10;100.00;96916.63;5077581;28;20044;-49
2024/01/11 05:28:01;;;;;;;2.60;0.40;;;;;;;1.30;100.00;96941.38;5071778;28;20043;-49
2024/01/11 05:30:27;;;;;;;0.75;0.40;;;;;;;1.32;100.00;96940.41;5069940;28;20437;-49
2024/01/11 05:32:54;;;;;;;0.80;0.50;;;;;;;1.25;100.00;96944.13;5067959;28;20064;-51
2024/01/11 05:35:20;;;;;;;1.63;0.65;;;;;;;1.08;100.00;96909.00;5067305;28;20068;-52
2024/01/11 05:37:46;;;;;;;3.80;0.50;;;;;;;1.21;100.00;96911.88;5064527;28;20043;-48
2024/01/11 05:40:12;;;;;;;0.30;0.30;;;;;;;1.34;100.00;96930.94;5063793;28;20036;-45
2024/01/11 05:42:38;;;;;;;0.70;0.52;;;;;;;1.41;100.00;96926.41;5070619;28;20037;-51
2024/01/11 05:45:05;;;;;;;1.20;0.50;;;;;;;1.42;100.00;96923.78;5070903;28;20048;-49
2024/01/11 05:47:31;;;;;;;1.40;0.50;;;;;;;1.43;100.00;96922.03;5070787;28;20036;-50
2024/01/11 05:49:57;;;;;;;2.00;0.50;;;;;;;1.24;100.00;96888.72;5075027;28;20088;-51
2024/01/11 05:52:23;;;;;;;2.15;0.50;;;;;;;1.47;100.00;96924.41;5074566;28;20036;-46
2024/01/11 05:54:49;;;;;;;1.38;0.80;;;;;;;1.53;100.00;96928.44;5069900;28;20675;-51
2024/01/11 05:57:14;;;;;;;1.65;0.40;;;;;;;1.39;100.00;96893.19;5072530;28;20040;-52
2024/01/11 05:59:47;;;;;;;1.38;0.70;;;;;;;1.57;100.00;96906.94;5081920;28;20481;-46
2024/01/11 06:02:13;;;;;;;0.68;0.40;;;;;;;1.63;100.00;96910.06;5079401;28;20050;-46
2024/01/11 06:04:40;;;;;;;0.70;0.30;;;;;;;1.57;100.00;96909.50;5070261;28;20047;-49
2024/01/11 06:07:05;;;;;;;1.05;0.50;;;;;;;1.23;100.00;96846.97;5071514;28;20036;-49
2024/01/11 06:09:31;;;;;;;0.65;0.43;;;;;;;1.56;100.00;96901.00;5077592;28;20042;-47
2024/01/11 06:11:57;;;;;;;0.20;0.20;;;;;;;1.38;100.00;96853.16;5088076;28;20147;-46
2024/01/11 06:14:23;;;;;;;0.77;0.30;;;;;;;1.62;100.00;96892.22;5078789;28;20044;-48
2024/01/11 06:16:49;;;;;;;2.55;0.40;;;;;;;1.65;100.00;96889.53;5070718;28;20052;-49
2024/01/11 06:19:15;;;;;;;0.30;0.30;;;;;;;1.33;100.00;96839.72;5074772;28;20551;-49
2024/01/11 06:21:41;;;;;;;0.47;0.38;;;;;;;1.57;100.00;96886.47;5078810;28;20519;-45
2024/01/11 06:24:07;;;;;;;2.45;0.55;;;;;;;1.61;100.00;96885.44;5076440;28;20413;-49
2024/01/11 06:26:33;;;;;;;0.85;0.40;;;;;;;1.66;100.00;96893.75;5061621;28;20040;-49
2024/01/11 06:28:59;;;;;;;0.45;0.32;;;;;;;1.62;100.00;96879.41;5085355;28;20097;-50
2024/01/11 06:31:26;;;;;;;0.50;0.40;;;;;;;1.64;100.00;96882.72;5073698;28;20047;-46
2024/01/11 06:33:52;;;;;;;3.83;0.65;;;;;;;1.73;100.00;96886.63;5073422;28;20097;-46
2024/01/11 06:36:18;;;;;;;0.75;0.47;;;;;;;1.73;100.00;96873.84;5076767;28;20075;-46
2024/01/11 06:38:45;;;;;;;1.25;0.40;;;;;;;1.78;100.00;96877.81;5094644;28;20039;-49
2024/01/11 06:41:11;;;;;;;2.45;0.35;;;;;;;1.83;100.00;96877.66;5053340;28;20461;-49
2024/01/11 06:43:37;;;;;;;0.93;0.40;;;;;;;1.88;100.00;96891.91;5085664;28;20040;-51
2024/01/11 06:46:04;;;;;;;2.05;0.38;;;;;;;1.95;100.00;96872.78;5085424;28;20776;-47
2024/01/11 06:48:31;;;;;;;0.40;0.30;;;;;;;2.00;100.00;96870.84;5090514;28;20059;-49
2024/01/11 06:50:58;;;;;;;1.48;0.40;;;;;;;2.04;100.00;96874.13;5062256;28;20047;-47
2024/01/11 06:53:24;;;;;;;0.65;0.35;;;;;;;2.03;100.00;96865.59;5072164;28;20047;-49
2024/01/11 06:55:52;;;;;;;0.35;0.30;;;;;;;2.04;100.00;96866.44;5071935;28;20249;-48
2024/01/11 06:58:22;;;;;;;0.20;0.20;;;;;;;2.00;100.00;96864.88;5049928;28;20107;-47
2024/01/11 07:00:49;;;;;;;;;;;;;;;1.99;100.00;96853.00;5066281;28;20047;-49
2024/01/11 07:03:15;;;;;;;1.08;0.30;;;;;;;1.95;100.00;96857.41;5072716;28;19915;-49
2024/01/11 07:05:41;;;;;;;1.58;0.50;;;;;;;1.97;100.00;96870.16;5081176;28;20039;-50
2024/01/11 07:08:08;;;;;;;0.70;0.50;;;;;;;2.03;100.00;96851.97;5080206;28;20043;-46
2024/01/11 07:10:34;;;;;;;0.80;0.30;;;;;;;2.04;100.00;96848.50;5054687;28;20040;-48
2024/01/11 07:13:01;;;;;;;0.50;0.40;;;;;;;1.83;100.00;96821.31;5056255;28;20040;-51
2024/01/11 07:15:27;;;;;;;0.90;0.32;;;;;;;2.06;100.00;96849.25;5068573;28;20043;-51
2024/01/11 07:17:53;;;;;;;0.52;0.35;;;;;;;2.07;100.00;96846.63;5072873;28;20063;-49
2024/01/11 07:20:20;;;;;;;0.28;0.20;;;;;;;2.18;100.00;96845.28;5067000;28;20543;-48
2024/01/11 07:22:46;;;;;;;1.02;0.50;;;;;;;2.10;100.00;96838.78;5071502;28;20044;-50
2024/01/11 07:25:14;;;;;;;1.52;0.90;;;;;;;2.04;100.00;96835.69;5076985;28;20040;-47
2024/01/11 07:27:41;;;;;;;0.93;0.50;;;;;;;1.74;100.00;96789.25;5085379;28;20040;-47
2024/01/11 07:30:08;;;;;;;3.00;0.60;;;;;;;2.21;100.00;96837.44;5072477;28;20345;-48
2024/01/11 07:32:34;;;;;;;0.70;0.65;;;;;;;2.36;100.00;96834.16;5076094;28;20063;-47
2024/01/11 07:35:01;;;;;;;0.90;0.40;;;;;;;2.44;100.00;96835.47;5071046;28;20078;-49
2024/01/11 07:37:28;;;;;;;0.60;0.60;;;;;;;2.48;100.00;96811.34;5071194;28;20135;-46
2024/01/11 07:39:54;;;;;;;0.60;0.43;;;;;;;2.77;100.00;96821.94;5070572;28;20592;-47
2024/01/11 07:42:20;;;;;;;2.03;0.40;;;;;;;2.63;100.00;96789.25;5075804;28;20041;-47
2024/01/11 07:44:46;;;;;;;1.58;0.50;;;;;;;2.78;100.00;96814.16;5046301;28;20047;-46
2024/01/11 07:47:13;;;;;;;0.73;0.40;;;;;;;2.70;100.00;96805.19;5079310;28;20044;-51
2024/01/11 07:49:39;;;;;;;0.20;0.20;;;;;;;2.65;100.00;96799.44;5066728;28;20056;-50
2024/01/11 07:52:05;;;;;;;0.50;0.50;;;;;;;2.63;100.00;96802.06;5075286;28;20047;-48
2024/01/11 07:54:31;;;;;;;0.43;0.20;;;;;;;2.36;100.00;96740.16;5074130;28;20135;-47
2024/01/11 07:56:57;;;;;;;0.60;0.43;;;;;;;2.70;100.00;96800.06;5069520;28;20066;-50
2024/01/11 07:59:24;;;;;;;2.22;0.60;;;;;;;2.67;100.00;96795.88;5076780;28;20165;-50
2024/01/11 08:01:52;;;;;;;2.55;0.40;;;;;;;2.51;100.00;96790.69;5074891;28;20064;-53
2024/01/11 08:04:18;;;;;;;1.15;0.60;;;;;;;2.56;100.00;96800.75;5078877;28;20047;-51
2024/01/11 08:06:45;;;;;;;1.52;0.63;;;;;;;2.52;100.00;96782.09;5071293;28;20056;-55
2024/01/11 08:09:13;;;;;;;1.38;0.60;;;;;;;2.55;100.00;96791.38;5060550;28;20037;-62
2024/01/11 08:11:41;;;;;;;1.45;0.60;;;;;;;2.32;100.00;96754.03;5068770;28;20039;-61
2024/01/11 08:14:07;;;;;;;3.63;0.50;;;;;;;2.54;100.00;96782.03;5079071;28;20158;-61
2024/01/11 08:16:34;;;;;;;2.17;0.45;;;;;;;2.30;100.00;96752.47;5073252;28;20590;-61
2024/01/11 08:19:04;;;;;;;1.70;0.95;;;;;;;2.61;100.00;96785.97;5075794;28;20060;-62
2024/01/11 08:21:30;;;;;;;1.23;0.80;;;;;;;2.65;100.00;96774.63;5078203;28;20036;-62
2024/01/11 08:23:57;;;;;;;0.60;0.52;;;;;;;2.39;100.00;96739.19;5068092;28;20504;-63
2024/01/11 08:26:23;;;;;;;2.05;0.88;;;;;;;2.42;100.00;96770.63;5076661;28;20071;-61
2024/01/11 08:28:49;;;;;;;1.17;0.70;;;;;;;2.21;100.00;96732.38;5067518;28;20098;-60
2024/01/11 08:31:15;;;;;;;1.45;0.50;;;;;;;2.31;100.00;96762.63;5069768;28;20047;-62
2024/01/11 08:33:42;;;;;;;0.85;0.38;;;;;;;2.40;100.00;96767.31;5084539;28;20043;-61
2024/01/11 08:36:10;;;;;;;2.72;0.40;;;;;;;2.33;100.00;96776.19;5081466;28;20050;-61
2024/01/11 08:38:36;;;;;;;1.58;1.08;;;;;;;2.48;100.00;96761.81;5053629;28;20079;-62
2024/01/11 08:41:03;;;;;;;1.20;0.40;;;;;;;2.51;100.00;96772.72;5058585;28;20590;-60
2024/01/11 08:43:29;;;;;;;0.60;0.40;;;;;;;2.30;100.00;96757.59;5057859;28;20045;-60
2024/01/11 08:45:55;;;;;;;0.40;0.40;;;;;;;2.53;100.00;96855.53;5077961;28;20040;-62
2024/01/11 08:48:22;;;;;;;0.82;0.80;;;;;;;2.38;100.00;96846.03;5058098;28;20040;-62
2024/01/11 08:50:48;;;;;;;1.95;0.32;;;;;;;2.16;100.00;96840.22;5068792;28;20539;-62
2024/01/11 08:53:15;;;;;;;0.63;0.30;;;;;;;1.84;100.00;96822.94;5082883;28;20092;-60
2024/01/11 08:55:42;;;;;;;0.80;0.50;;;;;;;1.77;100.00;96822.41;5060272;28;20043;-62
2024/01/11 08:58:09;;;;;;;0.55;0.47;;;;;;;1.92;100.00;96857.56;5070526;28;20048;-61
2024/01/11 09:00:35;;;;;;;2.30;0.45;;;;;;;1.85;100.00;96866.41;5069935;28;20140;-61
2024/01/11 09:03:01;;;;;;;0.80;0.40;;;;;;;1.82;100.00;96881.09;5076153;28;20119;-61
2024/01/11 09:05:27;;;;;;;1.88;0.70;;;;;;;1.78;100.00;96870.13;5060147;28;20040;-62
2024/01/11 09:07:54;;;;;;;2.78;1.40;;;;;;;1.75;100.00;96861.78;5080576;28;20439;-61
2024/01/11 09:10:20;;;;;;;0.82;0.40;;;;;;;1.74;100.00;96860.94;5069056;28;20051;-62
2024/01/11 09:12:48;;;;;;;2.30;0.50;;;;;;;1.74;100.00;96862.66;5052716;28;20044;-61
2024/01/11 09:15:15;;;;;;;1.50;0.57;;;;;;;1.75;100.00;96877.97;5080118;28;20042;-61
2024/01/11 09:17:41;;;;;;;2.05;0.43;;;;;;;1.72;100.00;96878.13;5064020;28;20121;-62
2024/01/11 09:20:07;;;;;;;3.88;0.63;;;;;;;1.37;100.00;96832.72;5063984;28;20047;-61
2024/01/11 09:22:33;;;;;;;2.22;0.95;;;;;;;1.72;100.00;96901.16;5066416;28;20046;-60
2024/01/11 09:25:00;;;;;;;1.83;0.95;;;;;;;1.71;100.00;96902.06;5073086;28;20040;-61
2024/01/11 09:27:26;;;;;;;1.80;1.00;;;;;;;1.48;100.00;96867.19;5073557;28;20036;-62
2024/01/11 09:29:52;;;;;;;1.85;0.93;;;;;;;1.65;100.00;96912.56;5079976;28;20511;-60
2024/01/11 09:32:18;;;;;;;1.00;0.70;;;;;;;1.44;100.00;96886.16;5068856;28;20147;-62
2024/01/11 09:34:45;;;;;;;2.55;0.88;;;;;;;1.72;100.00;96913.13;5068572;28;20052;-61
2024/01/11 09:37:12;;;;;;;1.13;0.70;;;;;;;1.53;100.00;96877.25;5052380;28;20469;-61
2024/01/11 09:39:38;;;;;;;1.73;0.85;;;;;;;1.77;100.00;96932.53;5080989;28;20123;-62
2024/01/11 09:42:14;;;;;;;2.58;1.20;;;;;;;1.76;100.00;96930.84;5084294;28;20127;-61
2024/01/11 09:44:41;;;;;;;2.33;0.98;;;;;;;1.69;100.00;96922.59;5071311;28;20044;-62
2024/01/11 09:47:10;;;;;;;2.35;1.08;;;;;;;1.67;100.00;96942.31;5065537;28;20480;-61
2024/01/11 09:49:38;;;;;;;2.05;1.10;;;;;;;1.60;100.00;96932.41;5065068;28;20130;-62
2024/01/11 09:52:05;;;;;;;5.65;0.88;;;;;;;1.39;100.00;96908.56;5064002;28;20093;-63
2024/01/11 09:54:31;;;;;;;1.20;0.98;;;;;;;1.56;100.00;96944.50;5074766;28;20044;-62
2024/01/11 09:57:00;;;;;;;1.27;0.70;;;;;;;1.50;100.00;96946.50;5074785;28;20044;-63
2024/01/11 09:59:26;;;;;;;1.35;0.60;;;;;;;1.33;100.00;96918.22;5073798;28;20055;-61
2024/01/11 10:01:52;;;;;;;1.60;0.95;;;;;;;1.54;100.00;96964.22;5084705;28;20039;-62
2024/01/11 10:04:19;;;;;;;2.15;0.60;;;;;;;1.53;100.00;96970.22;5075087;28;20047;-62
2024/01/11 10:06:45;;;;;;;1.48;0.60;;;;;;;1.47;100.00;96970.47;5085641;28;20208;-62
2024/01/11 10:09:12;;;;;;;0.93;0.63;;;;;;;1.21;100.00;96945.97;5056617;28;20070;-61
2024/01/11 10:11:39;;;;;;;2.88;1.42;;;;;;;1.36;100.00;96975.22;5062125;28;20750;-61
2024/01/11 10:14:06;;;;;;;2.25;0.80;;;;;;;1.27;100.00;96990.94;5067162;28;20131;-62
2024/01/11 10:16:32;;;;;;;2.10;1.00;;;;;;;1.25;100.00;97003.81;5072917;28;20040;-62
2024/01/11 10:18:58;;;;;;;0.98;0.75;;;;;;;1.19;100.00;97001.50;5071793;28;20089;-64
2024/01/11 10:21:25;;;;;;;1.65;0.80;;;;;;;1.23;100.00;97020.13;5084233;28;20104;-63
2024/01/11 10:23:51;;;;;;;1.35;0.95;;;;;;;1.18;100.00;97034.81;5059509;28;20044;-62
2024/01/11 10:26:18;;;;;;;1.95;1.05;;;;;;;1.12;100.00;97030.78;5075291;28;20098;-62
2024/01/11 10:28:46;;;;;;;0.88;0.60;;;;;;;0.68;100.00;96966.00;5061029;28;20123;-63
2024/01/11 10:31:14;;;;;;;0.60;0.50;;;;;;;0.94;100.00;97028.94;5079072;28;20163;-61
2024/01/11 10:33:41;;;;;;;1.05;0.57;;;;;;;0.62;100.00;97014.81;5079064;28;20048;-62
2024/01/11 10:36:08;;;;;;;1.27;0.57;;;;;;;0.67;100.00;97053.00;5080660;28;20047;-61
2024/01/11 10:38:36;;;;;;;0.90;0.68;;;;;;;0.48;100.00;97057.94;5080758;28;20069;-62
2024/01/11 10:41:08;;;;;;;1.40;0.63;;;;;;;0.36;100.00;97069.44;5044080;28;20494;-62
2024/01/11 10:43:38;;;;;;;2.88;0.93;;;;;;;0.17;100.00;97070.13;5092035;28;20101;-62
2024/01/11 10:46:07;;;;;;;0.77;0.50;;;;;;;0.02;100.00;97091.09;5111047;27;20039;-64
2024/01/11 10:48:38;;;;;;;1.63;0.63;;;;;;;-0.14;100.00;97109.50;5073007;28;20043;-64
2024/01/11 10:51:09;;;;;;;2.63;0.93;;;;;;;-0.47;100.00;97080.78;5061886;28;20044;-61
2024/01/11 10:53:42;;;;;;;2.00;0.70;;;;;;;-0.37;100.00;97136.66;5073876;28;20039;-63
2024/01/11 10:56:11;;;;;;;1.13;0.80;;;;;;;-0.42;100.00;97144.47;5073657;28;20530;-62
2024/01/11 10:58:40;;;;;;;3.08;0.90;;;;;;;-0.51;100.00;97149.84;5067057;28;20401;-62
2024/01/11 11:01:08;;;;;;;3.95;0.88;;;;;;;-0.57;100.00;97158.50;5071481;28;20070;-61
2024/01/11 11:03:35;;;;;;;1.27;0.68;;;;;;;-0.75;100.00;97160.78;5074572;28;20044;-62
2024/01/11 11:06:02;;;;;;;1.60;0.70;;;;;;;-0.84;100.00;97166.19;5069552;28;20040;-62
2024/01/11 11:08:28;;;;;;;1.67;0.60;;;;;;;-1.00;100.00;97158.97;5066962;28;20201;-61
2024/01/11 11:10:58;;;;;;;3.47;1.42;;;;;;;-1.03;100.00;97176.88;5080288;28;20066;-62
2024/01/11 11:13:26;;;;;;;2.70;0.90;;;;;;;-1.13;100.00;97179.75;5067990;28;20036;-61
2024/01/11 11:15:52;;;;;;;0.95;0.60;;;;;;;-1.33;100.00;97180.31;5082874;28;20040;-62
2024/01/11 11:18:19;;;;;;;1.00;0.60;;;;;;;-1.36;100.00;97185.50;5070753;28;20117;-62
2024/01/11 11:20:47;;;;;;;0.70;0.60;;;;;;;-1.35;100.00;97198.19;5053536;28;20539;-61
2024/01/11 11:23:17;;;;;;;2.13;0.52;;;;;;;-1.51;100.00;97160.41;5071681;28;20105;-62
2024/01/11 11:25:46;;;;;;;0.98;0.55;;;;;;;-1.25;100.00;97206.41;5082481;28;20649;-62
2024/01/11 11:28:13;;;;;;;2.13;0.90;;;;;;;-1.36;100.00;97211.78;5077977;28;20044;-63